Time;durP1;ratioP1;P1;durP2;ratioP2;P2;SDS_P1;SDS_P2;PMS_P1;PMS_P2;Temp;Humidity;BMP_temperature;BMP_pressure;BME280_temperature;BME280_humidity;BME280_pressure;Samples;Min_cycle;Max_cycle;Signal;HPM_P1;HPM_P2
2023/10/16 00:00:47;;;;;;;14.63;7.95;;;5.70;99.90;;;;;;5033440;28;20383;-76
2023/10/16 00:03:12;;;;;;;9.43;6.28;;;5.70;99.90;;;;;;5031866;28;20379;-77
2023/10/16 00:05:44;;;;;;;11.82;7.13;;;5.80;99.90;;;;;;5031942;28;20402;-76
2023/10/16 00:08:16;;;;;;;9.73;6.17;;;5.70;99.90;;;;;;5032154;28;20478;-76
2023/10/16 00:10:55;;;;;;;9.93;6.13;;;5.60;99.90;;;;;;5031795;28;20402;-78
2023/10/16 00:13:26;;;;;;;9.85;6.20;;;5.60;99.90;;;;;;5014243;28;20439;-76
2023/10/16 00:15:54;;;;;;;14.32;5.90;;;5.60;99.90;;;;;;5014317;28;20415;-77
2023/10/16 00:18:23;;;;;;;12.20;7.20;;;5.80;99.90;;;;;;5031801;28;20885;-75
2023/10/16 00:20:49;;;;;;;11.52;7.05;;;5.70;99.90;;;;;;5014651;28;20723;-77
2023/10/16 00:23:17;;;;;;;11.50;6.90;;;5.60;99.90;;;;;;5032103;28;20745;-75
2023/10/16 00:25:43;;;;;;;16.70;7.10;;;5.50;99.90;;;;;;5032462;28;20401;-77
2023/10/16 00:28:10;;;;;;;16.77;7.50;;;5.50;99.90;;;;;;5032384;28;20391;-77
2023/10/16 00:30:40;;;;;;;10.55;6.53;;;5.40;99.90;;;;;;5033222;28;20382;-77
2023/10/16 00:33:06;;;;;;;11.35;6.30;;;5.40;99.90;;;;;;5032134;28;20391;-78
2023/10/16 00:35:32;;;;;;;18.40;6.07;;;5.40;99.90;;;;;;5031996;28;20438;-77
2023/10/16 00:37:58;;;;;;;11.88;6.30;;;5.50;99.90;;;;;;5031771;28;20430;-76
2023/10/16 00:40:33;;;;;;;11.23;7.28;;;5.40;99.90;;;;;;5031991;28;20912;-78
2023/10/16 00:43:11;;;;;;;14.50;7.47;;;5.30;99.90;;;;;;5035158;28;20406;-75
2023/10/16 00:45:45;;;;;;;13.40;7.63;;;5.20;99.90;;;;;;5035616;28;20463;-77
2023/10/16 00:48:15;;;;;;;10.75;7.30;;;5.20;99.90;;;;;;5031610;28;20394;-78
2023/10/16 00:50:41;;;;;;;12.20;7.55;;;5.20;99.90;;;;;;5031347;28;20398;-76
2023/10/16 00:53:07;;;;;;;11.40;7.07;;;5.30;99.90;;;;;;5031241;28;20387;-77
2023/10/16 00:55:34;;;;;;;11.02;7.30;;;5.30;99.90;;;;;;5031950;28;20494;-76
2023/10/16 00:58:00;;;;;;;14.50;7.35;;;5.30;99.90;;;;;;5031141;28;20387;-77
2023/10/16 01:00:27;;;;;;;17.25;8.50;;;5.30;99.90;;;;;;5031150;28;20383;-76
2023/10/16 01:02:53;;;;;;;12.95;7.50;;;5.30;99.90;;;;;;5030623;28;20462;-76
2023/10/16 01:05:23;;;;;;;13.68;7.70;;;5.30;99.90;;;;;;5031423;28;20466;-76
2023/10/16 01:07:50;;;;;;;14.18;6.93;;;5.40;99.90;;;;;;5031483;28;20438;-77
2023/10/16 01:10:17;;;;;;;13.57;7.30;;;5.40;99.90;;;;;;5031106;28;20395;-77
2023/10/16 01:12:54;;;;;;;15.48;8.43;;;5.40;99.90;;;;;;5030614;28;20387;-77
2023/10/16 01:15:24;;;;;;;12.65;8.55;;;5.40;99.90;;;;;;5030817;28;20434;-77
2023/10/16 01:17:50;;;;;;;11.90;8.25;;;5.30;99.90;;;;;;5030549;28;20395;-77
2023/10/16 01:20:20;;;;;;;12.80;8.50;;;5.40;99.90;;;;;;5030605;28;20473;-77
2023/10/16 01:22:47;;;;;;;13.95;8.00;;;5.40;99.90;;;;;;5012800;28;20440;-77
2023/10/16 01:25:14;;;;;;;14.80;8.40;;;5.40;99.90;;;;;;5030480;28;20394;-77
2023/10/16 01:27:40;;;;;;;14.70;8.30;;;5.30;99.90;;;;;;5030585;28;20470;-77
2023/10/16 01:30:06;;;;;;;15.82;8.77;;;5.30;99.90;;;;;;5030654;28;20387;-77
2023/10/16 01:32:32;;;;;;;20.13;9.57;;;5.30;99.90;;;;;;5030451;28;20383;-76
2023/10/16 01:35:01;;;;;;;18.20;8.60;;;5.30;99.90;;;;;;5030663;28;20403;-76
2023/10/16 01:37:27;;;;;;;17.38;9.90;;;5.20;99.90;;;;;;5030783;28;20766;-78
2023/10/16 01:40:12;;;;;;;15.00;8.90;;;5.20;99.90;;;;;;5030688;28;20384;-76
2023/10/16 01:42:38;;;;;;;18.93;10.80;;;5.20;99.90;;;;;;5030481;28;20394;-76
2023/10/16 01:45:04;;;;;;;17.30;9.27;;;5.20;99.90;;;;;;5030257;28;20395;-78
2023/10/16 01:47:30;;;;;;;16.45;8.95;;;5.20;99.90;;;;;;5030382;28;20749;-77
2023/10/16 01:49:56;;;;;;;19.48;9.40;;;5.20;99.90;;;;;;5012698;28;20391;-77
2023/10/16 01:52:22;;;;;;;17.97;8.90;;;5.10;99.90;;;;;;5030446;28;20410;-77
2023/10/16 01:54:49;;;;;;;17.05;9.40;;;5.10;99.90;;;;;;5030165;28;20507;-77
2023/10/16 01:57:15;;;;;;;16.52;10.00;;;5.10;99.90;;;;;;5030350;28;20383;-77
2023/10/16 01:59:43;;;;;;;14.52;8.60;;;5.00;99.90;;;;;;5030357;28;20807;-77
2023/10/16 02:02:11;;;;;;;20.67;10.57;;;5.10;99.90;;;;;;5030051;28;20387;-77
2023/10/16 02:04:39;;;;;;;15.27;8.63;;;5.00;99.90;;;;;;5030178;28;20383;-77
2023/10/16 02:07:08;;;;;;;14.77;9.23;;;5.00;99.90;;;;;;5030184;28;20870;-77
2023/10/16 02:09:38;;;;;;;18.20;9.70;;;4.90;99.90;;;;;;5031213;28;20398;-78
2023/10/16 02:12:14;;;;;;;12.75;8.85;;;4.90;99.90;;;;;;5030263;28;20387;-76
2023/10/16 02:14:40;;;;;;;14.43;8.77;;;4.90;99.90;;;;;;5029976;28;20735;-75
2023/10/16 02:17:14;;;;;;;24.15;11.30;;;4.80;99.90;;;;;;5030042;28;20403;-76
2023/10/16 02:19:43;;;;;;;15.20;9.20;;;4.80;99.90;;;;;;5030297;28;20383;-77
2023/10/16 02:22:09;;;;;;;13.60;8.55;;;4.70;99.90;;;;;;5030888;28;20399;-76
2023/10/16 02:24:37;;;;;;;13.20;8.80;;;4.70;99.90;;;;;;5032819;28;20442;-76
2023/10/16 02:27:03;;;;;;;16.93;10.23;;;4.70;99.90;;;;;;5033954;28;20561;-75
2023/10/16 02:29:31;;;;;;;14.90;8.85;;;4.80;99.90;;;;;;5033868;28;20386;-77
2023/10/16 02:31:58;;;;;;;15.55;9.10;;;4.80;99.90;;;;;;5033492;28;20387;-77
2023/10/16 02:34:24;;;;;;;14.23;8.63;;;4.80;99.90;;;;;;5033400;28;20415;-76
2023/10/16 02:36:51;;;;;;;12.45;9.20;;;4.90;99.90;;;;;;5015726;28;20487;-77
2023/10/16 02:39:35;;;;;;;16.50;10.52;;;5.00;99.90;;;;;;5033520;28;20387;-76
2023/10/16 02:42:14;;;;;;;13.98;9.55;;;4.90;99.90;;;;;;5015546;28;20383;-77
2023/10/16 02:44:42;;;;;;;16.70;10.75;;;4.80;99.90;;;;;;5033284;28;20387;-77
2023/10/16 02:47:09;;;;;;;17.77;11.17;;;4.80;99.90;;;;;;5033272;28;20765;-76
2023/10/16 02:49:35;;;;;;;19.05;10.18;;;4.80;99.90;;;;;;5032997;28;20925;-77
2023/10/16 02:52:01;;;;;;;22.33;11.68;;;4.90;99.90;;;;;;5032909;28;20391;-76
2023/10/16 02:54:27;;;;;;;17.90;10.20;;;4.90;99.90;;;;;;5032945;28;20411;-78
2023/10/16 02:56:59;;;;;;;17.03;10.93;;;4.90;99.90;;;;;;5015597;28;20893;-76
2023/10/16 02:59:26;;;;;;;15.35;9.82;;;4.90;99.90;;;;;;5033798;28;20391;-76
2023/10/16 03:01:53;;;;;;;17.95;9.75;;;4.90;99.90;;;;;;5035348;28;20383;-75
2023/10/16 03:04:23;;;;;;;19.67;10.43;;;4.90;99.90;;;;;;5040387;28;20465;-76
2023/10/16 03:06:53;;;;;;;18.23;10.05;;;4.90;99.90;;;;;;5036800;28;20869;-76
2023/10/16 03:09:31;;;;;;;20.58;9.75;;;5.00;99.90;;;;;;5034194;28;20395;-76
2023/10/16 03:12:07;;;;;;;16.60;10.50;;;5.00;99.90;;;;;;5032988;28;20456;-76
2023/10/16 03:17:25;;;;;;;16.98;9.95;;;5.00;99.90;;;;;;5010710;28;20770;-76
2023/10/16 03:19:54;;;;;;;17.03;10.97;;;5.00;99.90;;;;;;5033540;28;20465;-76
2023/10/16 03:22:21;;;;;;;21.70;11.23;;;4.90;99.90;;;;;;5032593;28;20433;-77
2023/10/16 03:24:47;;;;;;;19.95;10.00;;;4.80;99.90;;;;;;5032526;28;20391;-76
2023/10/16 03:27:27;;;;;;;21.23;10.70;;;4.90;99.90;;;;;;5032665;28;20387;-77
2023/10/16 03:29:54;;;;;;;15.18;10.45;;;4.90;99.90;;;;;;5032519;28;20397;-77
2023/10/16 03:32:20;;;;;;;17.63;11.23;;;4.80;99.90;;;;;;5032842;28;20395;-77
2023/10/16 03:34:46;;;;;;;17.23;10.30;;;4.80;99.90;;;;;;5014222;28;20418;-78
2023/10/16 03:37:13;;;;;;;19.63;11.30;;;4.80;99.90;;;;;;5032321;28;20806;-77
2023/10/16 03:39:39;;;;;;;19.23;10.63;;;4.80;99.90;;;;;;5032446;28;20878;-78
2023/10/16 03:42:17;;;;;;;15.95;10.10;;;4.80;99.90;;;;;;5032360;28;20424;-77
2023/10/16 03:44:43;;;;;;;19.70;11.77;;;4.90;99.90;;;;;;5032580;28;20837;-76
2023/10/16 03:47:10;;;;;;;18.83;11.20;;;4.80;99.90;;;;;;5035678;28;20506;-76
2023/10/16 03:49:36;;;;;;;19.65;11.80;;;4.90;99.90;;;;;;5042188;28;20425;-77
2023/10/16 03:52:02;;;;;;;18.60;11.57;;;4.80;99.90;;;;;;5044686;28;20387;-78
2023/10/16 03:54:31;;;;;;;20.95;11.75;;;4.80;99.90;;;;;;5047401;28;20403;-76
2023/10/16 03:57:00;;;;;;;18.15;11.25;;;4.80;99.90;;;;;;5043785;28;20383;-77
2023/10/16 03:59:29;;;;;;;22.17;11.38;;;4.90;99.90;;;;;;5054038;28;20399;-76
2023/10/16 04:01:55;;;;;;;19.85;12.90;;;4.90;99.90;;;;;;5055232;28;20478;-77
2023/10/16 04:04:24;;;;;;;18.83;11.25;;;4.90;99.90;;;;;;5038637;28;20383;-76
2023/10/16 04:06:52;;;;;;;23.48;12.82;;;4.80;99.90;;;;;;5054609;28;21068;-76
2023/10/16 04:09:19;;;;;;;20.00;12.20;;;4.80;99.90;;;;;;5054430;28;20458;-77
2023/10/16 04:11:54;;;;;;;20.55;12.82;;;4.80;99.90;;;;;;5055320;28;20411;-78
2023/10/16 04:14:36;;;;;;;20.92;11.85;;;4.70;99.90;;;;;;5037366;28;20413;-77
2023/10/16 04:17:02;;;;;;;21.48;12.98;;;4.80;99.90;;;;;;5055708;28;20411;-78
2023/10/16 04:22:09;;;;;;;24.37;12.70;;;4.70;99.90;;;;;;5055439;28;20424;-77
2023/10/16 04:24:44;;;;;;;23.17;11.75;;;4.70;99.90;;;;;;5053845;28;20375;-77
2023/10/16 04:27:29;;;;;;;22.75;11.68;;;4.70;99.90;;;;;;5018410;28;20398;-77
2023/10/16 04:32:56;;;;;;;20.73;11.88;;;4.70;99.90;;;;;;5033444;28;20429;-76
2023/10/16 04:36:49;;;;;;;19.17;11.17;;;4.60;99.90;;;;;;5032355;28;20593;-77
2023/10/16 04:38:52;;;;;;;20.33;12.10;;;4.60;99.90;;;;;;5029137;28;20777;-76
2023/10/16 04:42:49;;;;;;;19.83;11.98;;;4.70;99.90;;;;;;5031802;28;20399;-77
2023/10/16 04:44:49;;;;;;;21.20;12.37;;;4.70;99.90;;;;;;5031657;28;20391;-75
2023/10/16 04:47:16;;;;;;;20.07;11.20;;;4.70;99.90;;;;;;5031183;28;20387;-78
2023/10/16 04:49:59;;;;;;;19.52;12.13;;;4.60;99.90;;;;;;5031547;28;20387;-77
2023/10/16 04:53:06;;;;;;;16.67;10.80;;;4.60;99.90;;;;;;5031809;28;20387;-76
2023/10/16 04:55:22;;;;;;;17.10;11.00;;;4.60;99.90;;;;;;5032248;28;20418;-75
2023/10/16 04:57:47;;;;;;;21.45;13.07;;;4.70;99.90;;;;;;5032653;28;20387;-77
2023/10/16 05:00:54;;;;;;;24.33;13.37;;;4.60;99.90;;;;;;5032513;28;20432;-77
2023/10/16 05:03:23;;;;;;;22.85;12.52;;;4.60;99.90;;;;;;5031961;28;20429;-78
2023/10/16 05:06:05;;;;;;;23.17;12.95;;;4.60;99.90;;;;;;5031658;28;20425;-77
2023/10/16 05:11:33;;;;;;;25.50;13.30;;;4.70;99.90;;;;;;5032487;28;20502;-76
2023/10/16 05:16:30;;;;;;;19.58;12.60;;;4.70;99.90;;;;;;5032981;28;20414;-75
2023/10/16 05:19:30;;;;;;;23.00;13.40;;;4.60;99.90;;;;;;5034029;28;20742;-75
2023/10/16 06:14:09;;;;;;;28.25;15.38;;;5.00;99.90;;;;;;4974274;29;20397;-76
2023/10/16 06:16:42;;;;;;;28.08;15.02;;;5.00;99.90;;;;;;5006221;28;20888;-78
2023/10/16 06:19:18;;;;;;;29.48;15.15;;;5.00;99.90;;;;;;5034661;28;20395;-76
2023/10/16 06:21:49;;;;;;;24.85;13.65;;;5.10;99.90;;;;;;5034719;28;20705;-76
2023/10/16 06:24:25;;;;;;;22.75;14.02;;;5.10;99.90;;;;;;5035032;28;20379;-77
2023/10/16 06:26:55;;;;;;;22.27;13.52;;;5.20;99.90;;;;;;5034496;28;20379;-79
2023/10/16 06:29:24;;;;;;;23.52;13.60;;;5.30;99.90;;;;;;5035320;28;20386;-77
2023/10/16 06:31:53;;;;;;;23.30;13.00;;;5.30;99.90;;;;;;5035057;28;20403;-77
2023/10/16 06:34:23;;;;;;;21.58;12.63;;;5.40;99.90;;;;;;5033868;28;20387;-78
2023/10/16 06:36:51;;;;;;;21.00;13.15;;;5.40;99.90;;;;;;5034983;28;20398;-75
2023/10/16 06:39:22;;;;;;;25.10;12.95;;;5.50;99.80;;;;;;5035708;28;20423;-77
2023/10/16 06:41:55;;;;;;;21.90;12.38;;;5.50;99.90;;;;;;5033896;28;20873;-76
2023/10/16 06:44:28;;;;;;;21.45;12.10;;;5.60;96.20;;;;;;5034530;28;20399;-78
2023/10/16 06:46:58;;;;;;;21.67;12.50;;;5.70;95.70;;;;;;5024636;28;20518;-78
2023/10/16 06:49:35;;;;;;;20.45;12.15;;;5.70;92.20;;;;;;5035234;28;20520;-77
2023/10/16 06:52:04;;;;;;;20.27;11.80;;;5.80;89.30;;;;;;5039969;28;20792;-75
2023/10/16 06:54:30;;;;;;;21.08;11.73;;;5.90;87.00;;;;;;5034870;28;20398;-75
2023/10/16 06:56:59;;;;;;;19.23;12.30;;;5.90;85.80;;;;;;5034102;28;20387;-75
2023/10/16 06:59:27;;;;;;;24.73;13.10;;;5.90;88.00;;;;;;5020747;28;20901;-76
2023/10/16 07:01:53;;;;;;;21.60;12.98;;;5.90;87.30;;;;;;5029700;28;20487;-78
2023/10/16 07:04:19;;;;;;;23.75;13.10;;;5.90;88.40;;;;;;5032864;28;20375;-77
2023/10/16 07:06:47;;;;;;;31.55;13.20;;;6.10;88.70;;;;;;5016663;28;20451;-75
2023/10/16 07:09:12;;;;;;;26.23;14.33;;;6.30;84.40;;;;;;5031135;28;20453;-75
2023/10/16 07:11:42;;;;;;;26.63;13.90;;;6.30;85.60;;;;;;5014682;28;20399;-75
2023/10/16 07:14:12;;;;;;;25.17;14.07;;;6.30;86.90;;;;;;5030299;28;20776;-76
2023/10/16 07:16:39;;;;;;;28.15;14.10;;;6.30;86.30;;;;;;5033434;28;20397;-76
2023/10/16 07:19:07;;;;;;;27.90;14.18;;;6.40;86.70;;;;;;5015835;28;20391;-77
2023/10/16 07:21:33;;;;;;;25.98;14.30;;;6.50;85.60;;;;;;5014403;28;20389;-76
2023/10/16 07:23:58;;;;;;;27.52;13.80;;;6.60;83.40;;;;;;5032795;28;20479;-75
2023/10/16 07:26:28;;;;;;;26.87;13.27;;;6.70;80.40;;;;;;5028494;28;20426;-76
2023/10/16 07:28:54;;;;;;;24.10;13.20;;;6.80;77.10;;;;;;5026616;28;20482;-76
2023/10/16 07:31:21;;;;;;;25.73;13.57;;;6.80;73.60;;;;;;5022869;28;20671;-75
2023/10/16 07:33:50;;;;;;;27.13;12.82;;;6.80;73.10;;;;;;5001052;28;20524;-77
2023/10/16 07:36:17;;;;;;;24.60;13.02;;;6.90;72.00;;;;;;5018185;28;20413;-75
2023/10/16 07:38:44;;;;;;;23.65;12.85;;;7.00;72.80;;;;;;5019533;28;20464;-75
2023/10/16 07:41:18;;;;;;;27.80;13.60;;;7.20;70.60;;;;;;5039168;28;20463;-75
2023/10/16 07:43:46;;;;;;;24.95;13.10;;;7.20;70.00;;;;;;5031640;28;20379;-77
2023/10/16 07:48:44;;;;;;;25.70;12.93;;;7.40;67.00;;;;;;5030813;28;20395;-76
2023/10/16 07:51:10;;;;;;;29.67;13.75;;;7.50;65.30;;;;;;5003221;28;20412;-76
2023/10/16 07:53:39;;;;;;;114.10;28.25;;;7.50;64.20;;;;;;5010532;28;20396;-75
2023/10/16 07:59:06;;;;;;;23.48;13.00;;;7.80;60.90;;;;;;5025288;28;20453;-76
2023/10/16 08:01:36;;;;;;;24.15;13.00;;;7.90;58.40;;;;;;5022813;28;20438;-76
2023/10/16 08:04:19;;;;;;;113.10;59.95;;;7.80;59.80;;;;;;5034080;28;20391;-75
2023/10/16 08:06:48;;;;;;;77.30;43.75;;;7.90;62.40;;;;;;5032004;28;20441;-75
2023/10/16 08:11:57;;;;;;;50.85;27.70;;;8.00;62.10;;;;;;5027021;28;20385;-75
2023/10/16 08:14:28;;;;;;;54.95;29.65;;;8.20;60.80;;;;;;4993680;28;20393;-75
2023/10/16 08:17:14;;;;;;;98.18;49.95;;;8.40;61.10;;;;;;5030763;28;20979;-76
2023/10/16 08:19:39;;;;;;;47.30;27.73;;;8.40;60.70;;;;;;5032191;28;20403;-75
2023/10/16 08:22:07;;;;;;;41.42;23.30;;;8.50;59.30;;;;;;5031458;28;20922;-75
2023/10/16 08:24:34;;;;;;;37.67;19.17;;;8.50;58.30;;;;;;5019660;28;20423;-75
2023/10/16 08:27:47;;;;;;;41.35;21.05;;;8.50;57.80;;;;;;5019643;28;20385;-75
2023/10/16 08:29:53;;;;;;;43.03;20.90;;;8.70;58.10;;;;;;5031416;28;20395;-74
2023/10/16 08:35:09;;;;;;;36.78;21.73;;;9.00;54.60;;;;;;5020290;28;20850;-74
2023/10/16 08:37:36;;;;;;;41.55;24.67;;;9.20;54.50;;;;;;5033773;28;20393;-74
2023/10/16 08:40:02;;;;;;;87.80;49.95;;;9.30;52.90;;;;;;5034660;28;20403;-74
2023/10/16 08:42:28;;;;;;;25.70;14.20;;;9.40;53.50;;;;;;5038132;28;20415;-75
2023/10/16 08:47:42;;;;;;;30.97;17.63;;;9.40;51.10;;;;;;5013221;28;20460;-75
2023/10/16 08:50:17;;;;;;;26.83;14.13;;;9.40;51.80;;;;;;5015353;28;20401;-76
2023/10/16 08:52:51;;;;;;;37.88;15.95;;;9.50;50.30;;;;;;5030255;28;20804;-75
2023/10/16 08:55:17;;;;;;;25.42;15.50;;;9.30;50.60;;;;;;5024062;28;20461;-75
2023/10/16 08:57:45;;;;;;;30.33;15.20;;;9.20;51.00;;;;;;5005954;28;20396;-75
2023/10/16 09:00:20;;;;;;;29.70;15.50;;;9.10;52.50;;;;;;5014353;28;20389;-76
2023/10/16 09:02:51;;;;;;;26.40;14.23;;;9.30;51.40;;;;;;5032257;28;20383;-75
2023/10/16 09:05:16;;;;;;;26.77;15.03;;;9.30;50.80;;;;;;5030814;28;20824;-75
2023/10/16 09:07:42;;;;;;;26.90;14.60;;;9.40;51.10;;;;;;5031767;28;20386;-75
2023/10/16 09:10:10;;;;;;;24.87;15.17;;;9.50;49.60;;;;;;5028164;28;20902;-74
2023/10/16 09:12:52;;;;;;;27.27;15.07;;;9.50;50.60;;;;;;4995698;28;20400;-74
2023/10/16 09:15:24;;;;;;;25.90;14.02;;;9.80;49.60;;;;;;5013345;28;20405;-75
2023/10/16 09:17:51;;;;;;;26.08;15.15;;;10.00;47.40;;;;;;5012267;28;20396;-76
2023/10/16 09:20:22;;;;;;;30.37;15.10;;;10.00;46.80;;;;;;5011021;28;20804;-76
2023/10/16 09:22:48;;;;;;;29.17;15.43;;;9.90;46.50;;;;;;5011222;28;20384;-75
2023/10/16 09:25:15;;;;;;;27.70;15.45;;;9.90;48.00;;;;;;5011078;28;20388;-75
2023/10/16 09:27:50;;;;;;;26.98;14.70;;;10.20;46.60;;;;;;5012313;28;20380;-76
2023/10/16 09:30:18;;;;;;;30.17;15.40;;;10.20;45.70;;;;;;5012625;28;20415;-76
2023/10/16 09:32:44;;;;;;;25.48;15.32;;;10.30;45.90;;;;;;5017667;28;20459;-76
2023/10/16 09:35:14;;;;;;;22.43;14.50;;;10.20;45.50;;;;;;5020017;28;20443;-75
2023/10/16 09:37:40;;;;;;;25.45;14.60;;;10.30;46.60;;;;;;5017520;28;20395;-76
2023/10/16 09:42:56;;;;;;;27.75;14.90;;;10.20;45.50;;;;;;5016241;28;20836;-75
2023/10/16 09:45:25;;;;;;;26.40;15.20;;;10.30;45.20;;;;;;5017005;28;20420;-77
2023/10/16 09:47:57;;;;;;;31.27;17.30;;;10.20;45.90;;;;;;5016261;28;20392;-76
2023/10/16 09:50:24;;;;;;;29.23;15.55;;;10.30;45.40;;;;;;5015431;28;20393;-77
2023/10/16 09:52:49;;;;;;;28.63;16.25;;;10.30;46.50;;;;;;5014631;28;20388;-76
2023/10/16 09:55:18;;;;;;;29.33;16.47;;;10.30;45.90;;;;;;5000659;28;20419;-76
2023/10/16 09:57:50;;;;;;;31.13;16.17;;;10.40;45.40;;;;;;5020779;28;20389;-75
2023/10/16 10:00:28;;;;;;;28.75;16.88;;;10.50;44.80;;;;;;5015661;28;20380;-76
2023/10/16 10:03:12;;;;;;;27.48;16.00;;;10.50;44.80;;;;;;5015746;28;20411;-75
2023/10/16 10:05:48;;;;;;;27.98;14.73;;;10.70;44.60;;;;;;5017166;28;20729;-76
2023/10/16 10:08:23;;;;;;;28.20;14.93;;;10.80;45.20;;;;;;5017013;28;20393;-77
2023/10/16 10:11:17;;;;;;;30.40;15.40;;;10.90;43.60;;;;;;5016259;28;20389;-75
2023/10/16 10:14:08;;;;;;;26.00;14.98;;;11.00;42.10;;;;;;5015247;28;20728;-76
2023/10/16 10:16:35;;;;;;;26.00;15.50;;;11.10;41.50;;;;;;5015229;28;20871;-75
2023/10/16 10:19:04;;;;;;;31.48;14.85;;;11.20;41.10;;;;;;5015345;28;20396;-75
2023/10/16 10:21:44;;;;;;;27.15;15.98;;;11.20;41.30;;;;;;5014504;28;20471;-75
2023/10/16 10:24:15;;;;;;;29.77;14.63;;;11.30;40.50;;;;;;5014763;28;20385;-75
2023/10/16 10:26:52;;;;;;;25.30;13.73;;;11.30;39.50;;;;;;5015045;28;20389;-76
2023/10/16 10:29:20;;;;;;;25.95;12.85;;;11.40;38.50;;;;;;5015389;28;20813;-77
2023/10/16 10:31:56;;;;;;;26.05;13.18;;;11.40;38.40;;;;;;5015390;28;20756;-77
2023/10/16 10:34:27;;;;;;;21.65;12.85;;;11.50;38.10;;;;;;5015039;28;20404;-75
2023/10/16 10:36:53;;;;;;;23.33;13.27;;;11.70;38.30;;;;;;5015293;28;20381;-76
2023/10/16 10:39:22;;;;;;;24.58;12.15;;;11.90;37.50;;;;;;5017445;28;20395;-74
2023/10/16 10:41:51;;;;;;;27.13;12.40;;;12.10;37.70;;;;;;5014713;28;20475;-75
2023/10/16 10:44:18;;;;;;;23.70;11.90;;;12.20;36.80;;;;;;5012204;28;20511;-74
2023/10/16 10:46:53;;;;;;;28.70;13.50;;;12.40;36.80;;;;;;5013208;28;20448;-75
2023/10/16 10:49:31;;;;;;;27.60;13.02;;;12.40;35.70;;;;;;5013031;28;20381;-75
2023/10/16 10:52:04;;;;;;;29.27;12.93;;;12.50;35.10;;;;;;5013020;28;20468;-76
2023/10/16 10:54:30;;;;;;;26.20;13.82;;;12.60;35.00;;;;;;5016769;28;20389;-76
2023/10/16 10:56:59;;;;;;;26.50;14.63;;;12.60;34.80;;;;;;4999246;28;20393;-75
2023/10/16 10:59:41;;;;;;;20.20;12.60;;;12.60;34.00;;;;;;5014035;28;20787;-76
2023/10/16 11:04:54;;;;;;;25.85;13.07;;;12.50;34.70;;;;;;5013250;28;20492;-75
2023/10/16 11:07:28;;;;;;;24.77;13.00;;;12.70;34.40;;;;;;4999777;28;20389;-75
2023/10/16 11:09:57;;;;;;;27.00;13.10;;;12.80;34.20;;;;;;5012809;28;20391;-75
2023/10/16 11:12:26;;;;;;;21.33;11.52;;;13.00;33.50;;;;;;5013004;28;20420;-75
2023/10/16 11:14:53;;;;;;;21.33;12.02;;;13.00;32.90;;;;;;5012773;28;20439;-75
2023/10/16 11:17:33;;;;;;;25.63;13.40;;;13.00;33.10;;;;;;5012905;28;20400;-76
2023/10/16 11:22:57;;;;;;;22.83;12.57;;;12.80;32.70;;;;;;4979283;28;20736;-76
2023/10/16 11:25:28;;;;;;;21.95;12.20;;;12.90;33.00;;;;;;5012981;28;20380;-77
2023/10/16 11:27:57;;;;;;;20.35;10.48;;;12.90;33.00;;;;;;5012581;28;20389;-75
2023/10/16 11:30:26;;;;;;;24.15;11.98;;;12.90;33.30;;;;;;5012713;28;20423;-75
2023/10/16 11:32:53;;;;;;;25.83;12.55;;;13.00;32.70;;;;;;5012728;28;20480;-75
2023/10/16 11:35:19;;;;;;;22.75;12.52;;;13.20;32.60;;;;;;4995466;28;20544;-76
2023/10/16 11:40:45;;;;;;;30.47;11.80;;;13.20;32.30;;;;;;5015631;28;20443;-76
2023/10/16 11:43:11;;;;;;;23.00;11.95;;;13.40;32.50;;;;;;5014598;28;20391;-76
2023/10/16 11:45:42;;;;;;;25.08;10.93;;;13.50;31.10;;;;;;5013335;28;20400;-76
2023/10/16 11:48:25;;;;;;;24.40;11.88;;;13.60;31.40;;;;;;5012370;28;20395;-75
2023/10/16 11:50:53;;;;;;;21.73;11.48;;;13.60;30.90;;;;;;5012621;28;20393;-75
2023/10/16 11:53:25;;;;;;;21.45;11.15;;;13.60;30.40;;;;;;5012144;28;20389;-76
2023/10/16 11:55:51;;;;;;;26.25;11.70;;;13.80;30.80;;;;;;5012579;28;20405;-76
2023/10/16 11:58:17;;;;;;;23.08;10.82;;;13.80;30.20;;;;;;5012417;28;20875;-76
2023/10/16 12:00:54;;;;;;;18.52;10.55;;;13.90;30.60;;;;;;4994310;28;20807;-76
2023/10/16 12:03:26;;;;;;;22.38;10.80;;;13.90;30.20;;;;;;4994336;28;20471;-76
2023/10/16 12:05:52;;;;;;;25.75;11.20;;;14.00;29.70;;;;;;5012059;28;20385;-75
2023/10/16 12:08:21;;;;;;;23.33;10.80;;;14.10;29.40;;;;;;5012292;28;20391;-77
2023/10/16 12:10:50;;;;;;;20.30;10.90;;;14.20;28.60;;;;;;5011801;28;20396;-76
2023/10/16 12:13:16;;;;;;;20.48;10.50;;;14.20;27.90;;;;;;5011721;28;20424;-76
2023/10/16 12:15:43;;;;;;;20.33;10.80;;;14.30;28.90;;;;;;5011961;28;20902;-76
2023/10/16 12:18:12;;;;;;;20.75;11.40;;;14.20;28.40;;;;;;5012530;28;20399;-76
2023/10/16 12:20:38;;;;;;;26.83;11.60;;;14.20;28.10;;;;;;5012100;28;20396;-75
2023/10/16 12:23:05;;;;;;;25.50;11.10;;;14.10;28.50;;;;;;5011944;28;20373;-75
2023/10/16 12:25:32;;;;;;;19.75;11.30;;;14.30;28.30;;;;;;5011956;28;20388;-75
2023/10/16 12:27:58;;;;;;;18.95;10.18;;;14.40;27.40;;;;;;5013224;28;20483;-77
2023/10/16 12:30:27;;;;;;;19.67;10.80;;;14.80;26.20;;;;;;5014587;28;20471;-75
2023/10/16 12:32:54;;;;;;;18.92;10.20;;;14.70;27.20;;;;;;4994098;28;20397;-74
2023/10/16 12:35:22;;;;;;;24.30;9.60;;;14.60;26.40;;;;;;5012514;28;20466;-75
2023/10/16 12:37:49;;;;;;;18.23;10.57;;;14.80;26.70;;;;;;5011864;28;20468;-77
2023/10/16 12:40:24;;;;;;;19.67;10.77;;;15.10;25.10;;;;;;4994897;28;20413;-76
2023/10/16 12:42:53;;;;;;;18.42;10.45;;;14.80;25.80;;;;;;5012498;28;20863;-75
2023/10/16 12:45:19;;;;;;;17.30;10.55;;;14.70;26.70;;;;;;5012856;28;20393;-76
2023/10/16 12:47:46;;;;;;;22.10;10.70;;;14.70;27.00;;;;;;5012331;28;20759;-75
2023/10/16 12:50:12;;;;;;;21.08;10.77;;;15.00;26.50;;;;;;5014345;28;20855;-75
2023/10/16 12:52:39;;;;;;;22.25;11.02;;;15.10;25.40;;;;;;5021756;28;20417;-75
2023/10/16 12:55:09;;;;;;;20.98;10.50;;;15.10;25.70;;;;;;5013402;28;20408;-76
2023/10/16 12:57:34;;;;;;;17.23;10.00;;;15.30;25.50;;;;;;5013242;28;20510;-75
2023/10/16 13:00:00;;;;;;;23.50;10.40;;;15.20;26.10;;;;;;5013424;28;20443;-76
2023/10/16 13:02:26;;;;;;;20.00;10.50;;;15.10;25.70;;;;;;5012270;28;20406;-76
2023/10/16 13:04:52;;;;;;;16.33;8.93;;;15.10;25.60;;;;;;5010928;28;20404;-74
2023/10/16 13:07:18;;;;;;;16.50;10.10;;;15.20;25.20;;;;;;5014402;28;20482;-74
2023/10/16 13:09:44;;;;;;;22.58;9.68;;;15.10;25.00;;;;;;5014936;28;20491;-76
2023/10/16 13:12:10;;;;;;;17.65;10.20;;;15.00;25.10;;;;;;5008332;28;20897;-76
2023/10/16 13:14:36;;;;;;;18.25;9.00;;;15.10;25.20;;;;;;5026258;28;20422;-74
2023/10/16 13:17:01;;;;;;;17.00;9.60;;;15.10;25.20;;;;;;5025348;28;20395;-75
2023/10/16 13:19:27;;;;;;;16.42;9.45;;;15.20;24.90;;;;;;5025700;28;20842;-76
2023/10/16 13:21:53;;;;;;;18.83;10.40;;;15.40;24.70;;;;;;5026207;28;20447;-75
2023/10/16 13:24:23;;;;;;;14.75;9.00;;;15.50;24.10;;;;;;5019959;28;20379;-75
2023/10/16 13:26:52;;;;;;;17.55;9.27;;;15.50;23.80;;;;;;5030698;28;20470;-76
2023/10/16 13:29:18;;;;;;;15.45;8.63;;;15.70;23.50;;;;;;5013147;28;21011;-77
2023/10/16 13:31:47;;;;;;;19.38;9.35;;;15.70;23.90;;;;;;4994052;28;20400;-75
2023/10/16 13:34:13;;;;;;;18.75;8.27;;;16.00;23.20;;;;;;5010302;28;20753;-75
2023/10/16 13:36:56;;;;;;;16.73;8.60;;;16.10;23.40;;;;;;5010761;28;20417;-76
2023/10/16 13:39:24;;;;;;;20.02;8.32;;;16.10;23.30;;;;;;5011780;28;20381;-76
2023/10/16 13:41:50;;;;;;;16.42;8.18;;;16.00;22.60;;;;;;5032681;28;20826;-75
2023/10/16 13:44:24;;;;;;;14.20;8.40;;;16.20;23.00;;;;;;5026956;28;20491;-74
2023/10/16 13:46:51;;;;;;;20.08;9.25;;;16.30;22.40;;;;;;5022057;28;20403;-76
2023/10/16 13:49:18;;;;;;;18.10;8.30;;;16.30;21.60;;;;;;5027948;28;20395;-75
2023/10/16 13:51:44;;;;;;;16.80;8.25;;;16.50;21.20;;;;;;5019388;28;20966;-75
2023/10/16 13:54:13;;;;;;;17.97;9.07;;;16.40;21.30;;;;;;5009774;28;20426;-76
2023/10/16 13:56:40;;;;;;;14.57;7.53;;;16.40;21.50;;;;;;5010561;28;20887;-74
2023/10/16 13:59:06;;;;;;;15.75;7.78;;;16.50;21.60;;;;;;5010718;28;20855;-75
2023/10/16 14:01:43;;;;;;;16.15;7.72;;;16.50;21.70;;;;;;5010214;28;20389;-75
2023/10/16 14:04:15;;;;;;;18.40;7.60;;;16.50;21.50;;;;;;5010008;28;20412;-74
2023/10/16 14:06:43;;;;;;;12.45;7.60;;;16.70;21.00;;;;;;5010279;28;20538;-74
2023/10/16 14:09:19;;;;;;;10.93;6.00;;;16.70;20.80;;;;;;5011011;28;20418;-74
2023/10/16 14:11:48;;;;;;;12.80;6.03;;;16.70;19.90;;;;;;5017983;28;20417;-74
2023/10/16 14:14:18;;;;;;;14.48;6.00;;;16.40;20.00;;;;;;5010082;28;20747;-75
2023/10/16 14:16:46;;;;;;;12.18;6.20;;;16.00;20.80;;;;;;5011014;28;20462;-76
2023/10/16 14:19:14;;;;;;;14.20;7.15;;;15.90;21.60;;;;;;5012222;28;20530;-74
2023/10/16 14:21:40;;;;;;;9.57;5.67;;;16.10;21.70;;;;;;5013913;28;20872;-75